sensor_id;sensor_type;location;lat;lon;timestamp;P1;durP1;ratioP1;P2;durP2;ratioP2
11835;SDS011;5977;51.972;7.640;2022-08-11T00:01:08;158.00;;;50.73;;
11835;SDS011;5977;51.972;7.640;2022-08-11T00:03:45;157.43;;;50.53;;
11835;SDS011;5977;51.972;7.640;2022-08-11T00:06:23;157.93;;;50.90;;
11835;SDS011;5977;51.972;7.640;2022-08-11T00:08:55;157.43;;;50.67;;
11835;SDS011;5977;51.972;7.640;2022-08-11T00:11:30;157.67;;;50.77;;
11835;SDS011;5977;51.972;7.640;2022-08-11T00:14:00;158.37;;;51.13;;
11835;SDS011;5977;51.972;7.640;2022-08-11T00:16:29;157.73;;;50.67;;
11835;SDS011;5977;51.972;7.640;2022-08-11T00:18:57;157.93;;;50.93;;
11835;SDS011;5977;51.972;7.640;2022-08-11T00:21:28;157.60;;;51.07;;
11835;SDS011;5977;51.972;7.640;2022-08-11T00:24:17;158.00;;;50.77;;
11835;SDS011;5977;51.972;7.640;2022-08-11T00:26:46;158.30;;;51.00;;
11835;SDS011;5977;51.972;7.640;2022-08-11T00:29:15;158.23;;;51.47;;
11835;SDS011;5977;51.972;7.640;2022-08-11T00:31:44;158.03;;;51.00;;
11835;SDS011;5977;51.972;7.640;2022-08-11T00:34:16;157.60;;;50.53;;
11835;SDS011;5977;51.972;7.640;2022-08-11T00:36:49;157.40;;;50.83;;
11835;SDS011;5977;51.972;7.640;2022-08-11T00:39:21;157.40;;;50.87;;
11835;SDS011;5977;51.972;7.640;2022-08-11T00:41:57;157.97;;;51.13;;
11835;SDS011;5977;51.972;7.640;2022-08-11T00:44:48;157.50;;;50.50;;
11835;SDS011;5977;51.972;7.640;2022-08-11T00:47:42;157.23;;;50.33;;
11835;SDS011;5977;51.972;7.640;2022-08-11T00:50:26;156.67;;;50.03;;
11835;SDS011;5977;51.972;7.640;2022-08-11T00:56:10;157.23;;;50.57;;
11835;SDS011;5977;51.972;7.640;2022-08-11T00:59:22;157.33;;;50.50;;
11835;SDS011;5977;51.972;7.640;2022-08-11T01:02:08;156.97;;;50.17;;
11835;SDS011;5977;51.972;7.640;2022-08-11T01:05:02;157.60;;;50.63;;
11835;SDS011;5977;51.972;7.640;2022-08-11T01:07:54;157.83;;;50.37;;
11835;SDS011;5977;51.972;7.640;2022-08-11T01:10:50;157.87;;;50.87;;
11835;SDS011;5977;51.972;7.640;2022-08-11T01:20:07;158.00;;;50.33;;
11835;SDS011;5977;51.972;7.640;2022-08-11T01:23:27;156.97;;;50.27;;
11835;SDS011;5977;51.972;7.640;2022-08-11T01:29:55;157.27;;;50.37;;
11835;SDS011;5977;51.972;7.640;2022-08-11T01:33:03;157.50;;;50.57;;
11835;SDS011;5977;51.972;7.640;2022-08-11T01:36:32;157.43;;;50.23;;
11835;SDS011;5977;51.972;7.640;2022-08-11T01:39:34;157.93;;;50.30;;
11835;SDS011;5977;51.972;7.640;2022-08-11T01:45:55;157.10;;;50.03;;
11835;SDS011;5977;51.972;7.640;2022-08-11T01:48:33;156.77;;;49.70;;
11835;SDS011;5977;51.972;7.640;2022-08-11T01:51:10;158.13;;;50.57;;
11835;SDS011;5977;51.972;7.640;2022-08-11T01:53:55;157.00;;;49.90;;
11835;SDS011;5977;51.972;7.640;2022-08-11T01:56:45;157.03;;;50.03;;
11835;SDS011;5977;51.972;7.640;2022-08-11T01:59:25;156.63;;;49.60;;
11835;SDS011;5977;51.972;7.640;2022-08-11T02:05:10;156.97;;;49.63;;
11835;SDS011;5977;51.972;7.640;2022-08-11T02:07:48;158.23;;;49.90;;
11835;SDS011;5977;51.972;7.640;2022-08-11T02:10:25;158.03;;;49.90;;
11835;SDS011;5977;51.972;7.640;2022-08-11T02:13:33;157.87;;;49.57;;
11835;SDS011;5977;51.972;7.640;2022-08-11T02:16:12;157.93;;;49.93;;
11835;SDS011;5977;51.972;7.640;2022-08-11T02:18:49;158.00;;;50.07;;
11835;SDS011;5977;51.972;7.640;2022-08-11T02:21:41;157.60;;;49.80;;
11835;SDS011;5977;51.972;7.640;2022-08-11T02:24:33;157.27;;;49.47;;
11835;SDS011;5977;51.972;7.640;2022-08-11T02:27:15;157.90;;;49.77;;
11835;SDS011;5977;51.972;7.640;2022-08-11T02:29:54;158.20;;;50.00;;
11835;SDS011;5977;51.972;7.640;2022-08-11T02:32:31;157.37;;;49.70;;
11835;SDS011;5977;51.972;7.640;2022-08-11T02:35:23;157.17;;;49.63;;
11835;SDS011;5977;51.972;7.640;2022-08-11T02:38:05;158.33;;;49.97;;
11835;SDS011;5977;51.972;7.640;2022-08-11T02:40:42;157.93;;;50.00;;
11835;SDS011;5977;51.972;7.640;2022-08-11T02:43:26;158.13;;;50.07;;
11835;SDS011;5977;51.972;7.640;2022-08-11T02:46:04;157.67;;;49.70;;
11835;SDS011;5977;51.972;7.640;2022-08-11T02:48:47;157.90;;;49.73;;
11835;SDS011;5977;51.972;7.640;2022-08-11T02:51:47;158.37;;;49.93;;
11835;SDS011;5977;51.972;7.640;2022-08-11T02:54:26;158.03;;;49.80;;
11835;SDS011;5977;51.972;7.640;2022-08-11T02:57:00;157.63;;;49.87;;
11835;SDS011;5977;51.972;7.640;2022-08-11T02:59:42;157.60;;;49.53;;
11835;SDS011;5977;51.972;7.640;2022-08-11T03:02:28;157.63;;;49.60;;
11835;SDS011;5977;51.972;7.640;2022-08-11T03:05:11;158.20;;;50.00;;
11835;SDS011;5977;51.972;7.640;2022-08-11T03:07:50;157.37;;;49.50;;
11835;SDS011;5977;51.972;7.640;2022-08-11T03:10:40;157.57;;;49.70;;
11835;SDS011;5977;51.972;7.640;2022-08-11T03:13:37;157.07;;;49.40;;
11835;SDS011;5977;51.972;7.640;2022-08-11T03:16:31;156.67;;;49.10;;
11835;SDS011;5977;51.972;7.640;2022-08-11T03:19:13;156.43;;;49.07;;
11835;SDS011;5977;51.972;7.640;2022-08-11T03:21:51;156.10;;;48.97;;
11835;SDS011;5977;51.972;7.640;2022-08-11T03:24:30;156.47;;;49.20;;
11835;SDS011;5977;51.972;7.640;2022-08-11T03:27:06;156.60;;;48.97;;
11835;SDS011;5977;51.972;7.640;2022-08-11T03:29:38;157.33;;;49.70;;
11835;SDS011;5977;51.972;7.640;2022-08-11T03:32:21;157.73;;;49.50;;
11835;SDS011;5977;51.972;7.640;2022-08-11T03:34:55;157.93;;;49.57;;
11835;SDS011;5977;51.972;7.640;2022-08-11T03:37:32;158.30;;;49.77;;
11835;SDS011;5977;51.972;7.640;2022-08-11T03:43:59;160.10;;;49.67;;
11835;SDS011;5977;51.972;7.640;2022-08-11T03:46:35;161.17;;;50.00;;
11835;SDS011;5977;51.972;7.640;2022-08-11T03:49:18;161.90;;;50.30;;
11835;SDS011;5977;51.972;7.640;2022-08-11T03:51:55;161.43;;;50.47;;
11835;SDS011;5977;51.972;7.640;2022-08-11T03:54:33;160.90;;;49.97;;
11835;SDS011;5977;51.972;7.640;2022-08-11T04:00:16;159.73;;;49.63;;
11835;SDS011;5977;51.972;7.640;2022-08-11T04:06:20;159.40;;;49.67;;
11835;SDS011;5977;51.972;7.640;2022-08-11T04:09:36;159.57;;;49.70;;
11835;SDS011;5977;51.972;7.640;2022-08-11T04:12:27;159.13;;;49.50;;
11835;SDS011;5977;51.972;7.640;2022-08-11T04:18:46;159.93;;;49.87;;
11835;SDS011;5977;51.972;7.640;2022-08-11T04:21:40;159.37;;;50.07;;
11835;SDS011;5977;51.972;7.640;2022-08-11T04:24:47;159.27;;;49.70;;
11835;SDS011;5977;51.972;7.640;2022-08-11T04:30:57;159.23;;;50.00;;
11835;SDS011;5977;51.972;7.640;2022-08-11T04:33:50;159.83;;;50.13;;
11835;SDS011;5977;51.972;7.640;2022-08-11T04:36:34;159.27;;;50.10;;
11835;SDS011;5977;51.972;7.640;2022-08-11T04:39:38;159.43;;;49.97;;
11835;SDS011;5977;51.972;7.640;2022-08-11T04:42:26;159.37;;;50.10;;
11835;SDS011;5977;51.972;7.640;2022-08-11T04:45:54;158.87;;;49.73;;
11835;SDS011;5977;51.972;7.640;2022-08-11T04:48:46;158.43;;;49.73;;
11835;SDS011;5977;51.972;7.640;2022-08-11T04:52:11;158.80;;;49.93;;
11835;SDS011;5977;51.972;7.640;2022-08-11T04:58:25;158.27;;;49.77;;
11835;SDS011;5977;51.972;7.640;2022-08-11T05:01:29;158.37;;;49.73;;
11835;SDS011;5977;51.972;7.640;2022-08-11T05:07:46;158.13;;;49.57;;
11835;SDS011;5977;51.972;7.640;2022-08-11T05:10:45;158.40;;;49.97;;
11835;SDS011;5977;51.972;7.640;2022-08-11T05:13:25;158.67;;;50.13;;
11835;SDS011;5977;51.972;7.640;2022-08-11T05:16:14;157.70;;;49.47;;
11835;SDS011;5977;51.972;7.640;2022-08-11T05:19:02;158.17;;;49.93;;
11835;SDS011;5977;51.972;7.640;2022-08-11T05:21:50;157.90;;;49.90;;
11835;SDS011;5977;51.972;7.640;2022-08-11T05:24:41;158.13;;;50.00;;
11835;SDS011;5977;51.972;7.640;2022-08-11T05:27:36;158.23;;;50.00;;
11835;SDS011;5977;51.972;7.640;2022-08-11T05:30:26;158.97;;;50.50;;
11835;SDS011;5977;51.972;7.640;2022-08-11T05:33:17;158.63;;;50.37;;
11835;SDS011;5977;51.972;7.640;2022-08-11T05:36:07;157.87;;;50.00;;
11835;SDS011;5977;51.972;7.640;2022-08-11T05:38:53;158.40;;;50.33;;
11835;SDS011;5977;51.972;7.640;2022-08-11T05:41:44;158.60;;;50.43;;
11835;SDS011;5977;51.972;7.640;2022-08-11T05:44:31;159.03;;;50.40;;
11835;SDS011;5977;51.972;7.640;2022-08-11T05:47:22;159.67;;;50.90;;
11835;SDS011;5977;51.972;7.640;2022-08-11T05:50:10;159.20;;;50.53;;
11835;SDS011;5977;51.972;7.640;2022-08-11T05:52:58;159.03;;;50.73;;
11835;SDS011;5977;51.972;7.640;2022-08-11T05:55:45;158.47;;;50.60;;
11835;SDS011;5977;51.972;7.640;2022-08-11T05:58:35;159.07;;;50.87;;
11835;SDS011;5977;51.972;7.640;2022-08-11T06:01:08;159.00;;;50.70;;
11835;SDS011;5977;51.972;7.640;2022-08-11T06:03:38;159.40;;;51.27;;
11835;SDS011;5977;51.972;7.640;2022-08-11T06:06:24;158.93;;;51.00;;
11835;SDS011;5977;51.972;7.640;2022-08-11T06:08:54;158.20;;;50.73;;
11835;SDS011;5977;51.972;7.640;2022-08-11T06:11:24;159.30;;;51.23;;
11835;SDS011;5977;51.972;7.640;2022-08-11T06:14:11;159.47;;;51.47;;
11835;SDS011;5977;51.972;7.640;2022-08-11T06:16:41;159.77;;;51.83;;
11835;SDS011;5977;51.972;7.640;2022-08-11T06:19:13;158.77;;;51.13;;
11835;SDS011;5977;51.972;7.640;2022-08-11T06:21:43;159.03;;;51.40;;
11835;SDS011;5977;51.972;7.640;2022-08-11T06:24:13;158.80;;;51.43;;
11835;SDS011;5977;51.972;7.640;2022-08-11T06:26:46;159.10;;;51.50;;
11835;SDS011;5977;51.972;7.640;2022-08-11T06:29:36;158.13;;;51.03;;
11835;SDS011;5977;51.972;7.640;2022-08-11T06:32:22;158.03;;;51.43;;
11835;SDS011;5977;51.972;7.640;2022-08-11T06:34:54;158.63;;;51.73;;
11835;SDS011;5977;51.972;7.640;2022-08-11T06:37:34;158.03;;;51.03;;
11835;SDS011;5977;51.972;7.640;2022-08-11T06:40:10;158.53;;;52.13;;
11835;SDS011;5977;51.972;7.640;2022-08-11T06:42:48;157.67;;;51.73;;
11835;SDS011;5977;51.972;7.640;2022-08-11T06:45:28;158.57;;;51.83;;
11835;SDS011;5977;51.972;7.640;2022-08-11T06:47:59;158.93;;;51.87;;
11835;SDS011;5977;51.972;7.640;2022-08-11T06:50:28;158.80;;;52.30;;
11835;SDS011;5977;51.972;7.640;2022-08-11T06:53:20;158.67;;;52.27;;
11835;SDS011;5977;51.972;7.640;2022-08-11T06:55:51;158.20;;;52.17;;
11835;SDS011;5977;51.972;7.640;2022-08-11T06:58:50;158.47;;;51.93;;
11835;SDS011;5977;51.972;7.640;2022-08-11T07:01:40;158.93;;;52.40;;
11835;SDS011;5977;51.972;7.640;2022-08-11T07:04:17;158.30;;;52.40;;
11835;SDS011;5977;51.972;7.640;2022-08-11T07:06:56;158.43;;;52.27;;
11835;SDS011;5977;51.972;7.640;2022-08-11T07:13:18;158.87;;;52.77;;
11835;SDS011;5977;51.972;7.640;2022-08-11T07:16:11;158.10;;;52.07;;
11835;SDS011;5977;51.972;7.640;2022-08-11T07:18:43;158.63;;;52.60;;
11835;SDS011;5977;51.972;7.640;2022-08-11T07:21:31;158.57;;;52.47;;
11835;SDS011;5977;51.972;7.640;2022-08-11T07:24:30;159.03;;;53.00;;
11835;SDS011;5977;51.972;7.640;2022-08-11T07:27:30;158.23;;;52.43;;
11835;SDS011;5977;51.972;7.640;2022-08-11T07:30:20;158.83;;;53.23;;
11835;SDS011;5977;51.972;7.640;2022-08-11T07:32:50;157.47;;;52.63;;
11835;SDS011;5977;51.972;7.640;2022-08-11T07:35:23;158.43;;;53.63;;
11835;SDS011;5977;51.972;7.640;2022-08-11T07:37:58;157.67;;;53.07;;
11835;SDS011;5977;51.972;7.640;2022-08-11T07:40:33;158.27;;;53.00;;
11835;SDS011;5977;51.972;7.640;2022-08-11T07:43:03;157.70;;;53.20;;
11835;SDS011;5977;51.972;7.640;2022-08-11T07:45:32;157.93;;;53.13;;
11835;SDS011;5977;51.972;7.640;2022-08-11T07:48:18;157.43;;;52.87;;
11835;SDS011;5977;51.972;7.640;2022-08-11T07:51:05;157.47;;;52.73;;
11835;SDS011;5977;51.972;7.640;2022-08-11T07:53:51;157.60;;;53.43;;
11835;SDS011;5977;51.972;7.640;2022-08-11T07:56:30;158.90;;;53.87;;
11835;SDS011;5977;51.972;7.640;2022-08-11T07:59:19;158.10;;;53.57;;
11835;SDS011;5977;51.972;7.640;2022-08-11T08:02:36;157.97;;;53.53;;
11835;SDS011;5977;51.972;7.640;2022-08-11T08:05:22;157.43;;;53.13;;
11835;SDS011;5977;51.972;7.640;2022-08-11T08:08:10;158.53;;;53.93;;
11835;SDS011;5977;51.972;7.640;2022-08-11T08:10:58;158.13;;;54.40;;
11835;SDS011;5977;51.972;7.640;2022-08-11T08:13:52;158.37;;;54.07;;
11835;SDS011;5977;51.972;7.640;2022-08-11T08:16:39;158.43;;;54.87;;
11835;SDS011;5977;51.972;7.640;2022-08-11T08:19:25;158.33;;;54.40;;
11835;SDS011;5977;51.972;7.640;2022-08-11T08:21:54;157.77;;;53.87;;
11835;SDS011;5977;51.972;7.640;2022-08-11T08:24:44;158.57;;;54.57;;
11835;SDS011;5977;51.972;7.640;2022-08-11T08:27:13;158.47;;;54.80;;
11835;SDS011;5977;51.972;7.640;2022-08-11T08:29:42;158.53;;;54.57;;
11835;SDS011;5977;51.972;7.640;2022-08-11T08:32:28;158.43;;;54.43;;
11835;SDS011;5977;51.972;7.640;2022-08-11T08:35:00;158.43;;;54.63;;
11835;SDS011;5977;51.972;7.640;2022-08-11T08:37:30;158.60;;;54.63;;
11835;SDS011;5977;51.972;7.640;2022-08-11T08:40:14;158.23;;;54.90;;
11835;SDS011;5977;51.972;7.640;2022-08-11T08:42:44;158.43;;;54.33;;
11835;SDS011;5977;51.972;7.640;2022-08-11T08:45:18;158.03;;;53.93;;
11835;SDS011;5977;51.972;7.640;2022-08-11T08:47:51;158.70;;;54.57;;
11835;SDS011;5977;51.972;7.640;2022-08-11T08:50:23;158.87;;;55.17;;
11835;SDS011;5977;51.972;7.640;2022-08-11T08:53:13;157.57;;;54.20;;
11835;SDS011;5977;51.972;7.640;2022-08-11T08:55:45;157.93;;;54.17;;
11835;SDS011;5977;51.972;7.640;2022-08-11T08:58:15;158.47;;;54.70;;
11835;SDS011;5977;51.972;7.640;2022-08-11T09:00:46;157.73;;;53.97;;
11835;SDS011;5977;51.972;7.640;2022-08-11T09:03:18;157.60;;;53.63;;
11835;SDS011;5977;51.972;7.640;2022-08-11T09:06:06;158.23;;;54.07;;
11835;SDS011;5977;51.972;7.640;2022-08-11T09:08:35;158.90;;;55.13;;
11835;SDS011;5977;51.972;7.640;2022-08-11T09:11:07;157.57;;;53.90;;
11835;SDS011;5977;51.972;7.640;2022-08-11T09:13:55;157.53;;;53.87;;
11835;SDS011;5977;51.972;7.640;2022-08-11T09:16:31;158.60;;;54.57;;
11835;SDS011;5977;51.972;7.640;2022-08-11T09:19:01;158.93;;;55.40;;
11835;SDS011;5977;51.972;7.640;2022-08-11T09:21:30;158.27;;;54.67;;
11835;SDS011;5977;51.972;7.640;2022-08-11T09:24:14;159.00;;;55.33;;
11835;SDS011;5977;51.972;7.640;2022-08-11T09:27:04;158.07;;;54.17;;
11835;SDS011;5977;51.972;7.640;2022-08-11T09:29:34;158.47;;;54.80;;
11835;SDS011;5977;51.972;7.640;2022-08-11T09:32:04;159.17;;;56.23;;
11835;SDS011;5977;51.972;7.640;2022-08-11T09:34:36;158.47;;;55.13;;
11835;SDS011;5977;51.972;7.640;2022-08-11T09:37:05;156.93;;;53.40;;
11835;SDS011;5977;51.972;7.640;2022-08-11T09:40:13;158.67;;;55.00;;
11835;SDS011;5977;51.972;7.640;2022-08-11T09:43:00;158.83;;;54.90;;
11835;SDS011;5977;51.972;7.640;2022-08-11T09:45:50;158.23;;;54.47;;
11835;SDS011;5977;51.972;7.640;2022-08-11T09:48:19;158.40;;;54.77;;
11835;SDS011;5977;51.972;7.640;2022-08-11T09:50:49;159.13;;;55.80;;
11835;SDS011;5977;51.972;7.640;2022-08-11T09:53:19;158.43;;;54.70;;
11835;SDS011;5977;51.972;7.640;2022-08-11T09:56:03;158.70;;;55.13;;
11835;SDS011;5977;51.972;7.640;2022-08-11T09:58:48;158.90;;;55.57;;
11835;SDS011;5977;51.972;7.640;2022-08-11T10:01:19;159.30;;;55.57;;
11835;SDS011;5977;51.972;7.640;2022-08-11T10:03:55;158.77;;;55.30;;
11835;SDS011;5977;51.972;7.640;2022-08-11T10:06:27;159.23;;;55.77;;
11835;SDS011;5977;51.972;7.640;2022-08-11T10:09:20;158.47;;;55.10;;
11835;SDS011;5977;51.972;7.640;2022-08-11T10:11:50;157.67;;;54.27;;
11835;SDS011;5977;51.972;7.640;2022-08-11T10:14:25;159.00;;;55.27;;
11835;SDS011;5977;51.972;7.640;2022-08-11T10:17:11;158.00;;;54.70;;
11835;SDS011;5977;51.972;7.640;2022-08-11T10:19:42;158.67;;;55.33;;
11835;SDS011;5977;51.972;7.640;2022-08-11T10:22:29;158.80;;;55.53;;
11835;SDS011;5977;51.972;7.640;2022-08-11T10:25:15;158.43;;;55.50;;
11835;SDS011;5977;51.972;7.640;2022-08-11T10:28:02;158.23;;;54.90;;
11835;SDS011;5977;51.972;7.640;2022-08-11T10:30:54;159.00;;;55.80;;
11835;SDS011;5977;51.972;7.640;2022-08-11T10:33:42;158.70;;;55.57;;
11835;SDS011;5977;51.972;7.640;2022-08-11T10:36:27;160.03;;;56.97;;
11835;SDS011;5977;51.972;7.640;2022-08-11T10:38:57;159.97;;;56.97;;
11835;SDS011;5977;51.972;7.640;2022-08-11T10:41:27;160.40;;;57.30;;
11835;SDS011;5977;51.972;7.640;2022-08-11T10:44:35;160.53;;;57.23;;
11835;SDS011;5977;51.972;7.640;2022-08-11T10:47:06;159.87;;;56.60;;
11835;SDS011;5977;51.972;7.640;2022-08-11T10:49:58;161.10;;;57.57;;
11835;SDS011;5977;51.972;7.640;2022-08-11T10:52:46;160.23;;;57.10;;
11835;SDS011;5977;51.972;7.640;2022-08-11T10:55:33;160.00;;;56.53;;
11835;SDS011;5977;51.972;7.640;2022-08-11T10:58:24;159.77;;;56.73;;
11835;SDS011;5977;51.972;7.640;2022-08-11T11:01:10;159.23;;;56.40;;
11835;SDS011;5977;51.972;7.640;2022-08-11T11:03:39;160.23;;;57.00;;
11835;SDS011;5977;51.972;7.640;2022-08-11T11:06:15;159.60;;;56.40;;
11835;SDS011;5977;51.972;7.640;2022-08-11T11:08:59;160.10;;;56.33;;
11835;SDS011;5977;51.972;7.640;2022-08-11T11:11:33;161.43;;;57.80;;
11835;SDS011;5977;51.972;7.640;2022-08-11T11:14:21;161.17;;;57.57;;
11835;SDS011;5977;51.972;7.640;2022-08-11T11:17:21;160.30;;;57.33;;
11835;SDS011;5977;51.972;7.640;2022-08-11T11:20:13;161.00;;;57.90;;
11835;SDS011;5977;51.972;7.640;2022-08-11T11:23:10;161.00;;;57.77;;
11835;SDS011;5977;51.972;7.640;2022-08-11T11:29:06;161.20;;;58.33;;
11835;SDS011;5977;51.972;7.640;2022-08-11T11:31:48;160.23;;;56.63;;
11835;SDS011;5977;51.972;7.640;2022-08-11T11:34:30;160.73;;;57.47;;
11835;SDS011;5977;51.972;7.640;2022-08-11T11:37:24;160.97;;;57.97;;
11835;SDS011;5977;51.972;7.640;2022-08-11T11:39:55;161.00;;;58.00;;
11835;SDS011;5977;51.972;7.640;2022-08-11T11:42:24;160.30;;;57.20;;
11835;SDS011;5977;51.972;7.640;2022-08-11T11:44:53;161.13;;;58.20;;
11835;SDS011;5977;51.972;7.640;2022-08-11T11:47:26;161.17;;;58.17;;
11835;SDS011;5977;51.972;7.640;2022-08-11T11:49:55;161.17;;;57.97;;
11835;SDS011;5977;51.972;7.640;2022-08-11T11:52:25;161.87;;;58.87;;
11835;SDS011;5977;51.972;7.640;2022-08-11T11:54:54;161.13;;;58.17;;
11835;SDS011;5977;51.972;7.640;2022-08-11T11:57:23;160.90;;;57.67;;
11835;SDS011;5977;51.972;7.640;2022-08-11T12:00:24;160.53;;;57.77;;
11835;SDS011;5977;51.972;7.640;2022-08-11T12:03:10;161.10;;;58.20;;
11835;SDS011;5977;51.972;7.640;2022-08-11T12:05:39;161.50;;;58.50;;
11835;SDS011;5977;51.972;7.640;2022-08-11T12:08:11;161.33;;;58.67;;
11835;SDS011;5977;51.972;7.640;2022-08-11T12:10:44;161.70;;;59.10;;
11835;SDS011;5977;51.972;7.640;2022-08-11T12:13:14;161.67;;;58.57;;
11835;SDS011;5977;51.972;7.640;2022-08-11T12:16:01;161.70;;;59.23;;
11835;SDS011;5977;51.972;7.640;2022-08-11T12:18:50;162.23;;;59.30;;
11835;SDS011;5977;51.972;7.640;2022-08-11T12:21:20;162.53;;;58.70;;
11835;SDS011;5977;51.972;7.640;2022-08-11T12:23:51;161.30;;;58.80;;
11835;SDS011;5977;51.972;7.640;2022-08-11T12:26:39;161.63;;;58.77;;
11835;SDS011;5977;51.972;7.640;2022-08-11T12:29:43;162.03;;;58.77;;
11835;SDS011;5977;51.972;7.640;2022-08-11T12:32:20;161.53;;;58.47;;
11835;SDS011;5977;51.972;7.640;2022-08-11T12:34:49;162.00;;;58.80;;
11835;SDS011;5977;51.972;7.640;2022-08-11T12:37:19;161.97;;;58.60;;
11835;SDS011;5977;51.972;7.640;2022-08-11T12:39:52;162.00;;;58.87;;
11835;SDS011;5977;51.972;7.640;2022-08-11T12:43:02;161.80;;;58.50;;
11835;SDS011;5977;51.972;7.640;2022-08-11T12:46:05;162.10;;;58.80;;
11835;SDS011;5977;51.972;7.640;2022-08-11T12:48:36;162.83;;;59.20;;
11835;SDS011;5977;51.972;7.640;2022-08-11T12:51:30;162.33;;;58.67;;
11835;SDS011;5977;51.972;7.640;2022-08-11T12:54:40;162.10;;;59.23;;
11835;SDS011;5977;51.972;7.640;2022-08-11T12:57:18;161.13;;;58.33;;
11835;SDS011;5977;51.972;7.640;2022-08-11T13:00:10;161.27;;;58.33;;
11835;SDS011;5977;51.972;7.640;2022-08-11T13:02:56;162.30;;;59.10;;
11835;SDS011;5977;51.972;7.640;2022-08-11T13:05:42;160.93;;;57.50;;
11835;SDS011;5977;51.972;7.640;2022-08-11T13:08:11;161.20;;;58.17;;
11835;SDS011;5977;51.972;7.640;2022-08-11T13:10:41;161.37;;;58.17;;
11835;SDS011;5977;51.972;7.640;2022-08-11T13:13:29;162.63;;;59.60;;
11835;SDS011;5977;51.972;7.640;2022-08-11T13:16:18;162.33;;;59.20;;
11835;SDS011;5977;51.972;7.640;2022-08-11T13:18:48;161.60;;;58.63;;
11835;SDS011;5977;51.972;7.640;2022-08-11T13:21:19;162.37;;;59.40;;
11835;SDS011;5977;51.972;7.640;2022-08-11T13:23:48;162.90;;;60.57;;
11835;SDS011;5977;51.972;7.640;2022-08-11T13:26:31;162.10;;;59.30;;
11835;SDS011;5977;51.972;7.640;2022-08-11T13:29:19;161.97;;;59.67;;
11835;SDS011;5977;51.972;7.640;2022-08-11T13:31:50;162.17;;;59.50;;
11835;SDS011;5977;51.972;7.640;2022-08-11T13:34:20;161.87;;;58.60;;
11835;SDS011;5977;51.972;7.640;2022-08-11T13:36:52;162.37;;;59.47;;
11835;SDS011;5977;51.972;7.640;2022-08-11T13:39:22;161.93;;;59.70;;
11835;SDS011;5977;51.972;7.640;2022-08-11T13:41:53;162.43;;;59.90;;
11835;SDS011;5977;51.972;7.640;2022-08-11T13:44:25;161.70;;;59.10;;
11835;SDS011;5977;51.972;7.640;2022-08-11T13:46:55;161.97;;;59.27;;
11835;SDS011;5977;51.972;7.640;2022-08-11T13:49:24;162.77;;;60.60;;
11835;SDS011;5977;51.972;7.640;2022-08-11T13:51:53;161.90;;;59.67;;
11835;SDS011;5977;51.972;7.640;2022-08-11T13:54:22;161.43;;;58.90;;
11835;SDS011;5977;51.972;7.640;2022-08-11T13:56:54;162.63;;;59.97;;
11835;SDS011;5977;51.972;7.640;2022-08-11T13:59:27;161.63;;;59.20;;
11835;SDS011;5977;51.972;7.640;2022-08-11T14:01:58;161.80;;;59.50;;
11835;SDS011;5977;51.972;7.640;2022-08-11T14:04:49;162.00;;;59.37;;
11835;SDS011;5977;51.972;7.640;2022-08-11T14:07:21;161.87;;;59.23;;
11835;SDS011;5977;51.972;7.640;2022-08-11T14:09:54;162.63;;;59.60;;
11835;SDS011;5977;51.972;7.640;2022-08-11T14:12:25;162.60;;;59.60;;
11835;SDS011;5977;51.972;7.640;2022-08-11T14:15:15;162.27;;;59.30;;
11835;SDS011;5977;51.972;7.640;2022-08-11T14:17:47;161.43;;;58.23;;
11835;SDS011;5977;51.972;7.640;2022-08-11T14:20:22;161.87;;;59.17;;
11835;SDS011;5977;51.972;7.640;2022-08-11T14:23:10;161.67;;;58.77;;
11835;SDS011;5977;51.972;7.640;2022-08-11T14:25:40;162.60;;;59.63;;
11835;SDS011;5977;51.972;7.640;2022-08-11T14:28:30;161.60;;;59.10;;
11835;SDS011;5977;51.972;7.640;2022-08-11T14:31:10;161.83;;;59.17;;
11835;SDS011;5977;51.972;7.640;2022-08-11T14:33:40;162.77;;;60.60;;
11835;SDS011;5977;51.972;7.640;2022-08-11T14:36:27;162.23;;;58.87;;
11835;SDS011;5977;51.972;7.640;2022-08-11T14:38:59;163.00;;;59.67;;
11835;SDS011;5977;51.972;7.640;2022-08-11T14:41:30;162.80;;;59.17;;
11835;SDS011;5977;51.972;7.640;2022-08-11T14:44:36;162.40;;;59.50;;
11835;SDS011;5977;51.972;7.640;2022-08-11T14:47:24;163.57;;;60.63;;
11835;SDS011;5977;51.972;7.640;2022-08-11T14:49:55;163.20;;;59.67;;
11835;SDS011;5977;51.972;7.640;2022-08-11T14:52:38;163.13;;;60.20;;
11835;SDS011;5977;51.972;7.640;2022-08-11T14:55:12;162.90;;;60.00;;
11835;SDS011;5977;51.972;7.640;2022-08-11T14:58:00;163.10;;;60.10;;
11835;SDS011;5977;51.972;7.640;2022-08-11T15:00:29;162.80;;;60.07;;
11835;SDS011;5977;51.972;7.640;2022-08-11T15:03:00;162.33;;;59.27;;
11835;SDS011;5977;51.972;7.640;2022-08-11T15:05:36;162.47;;;59.90;;
11835;SDS011;5977;51.972;7.640;2022-08-11T15:08:07;161.70;;;59.10;;
11835;SDS011;5977;51.972;7.640;2022-08-11T15:10:35;162.87;;;60.50;;
11835;SDS011;5977;51.972;7.640;2022-08-11T15:13:03;161.73;;;59.17;;
11835;SDS011;5977;51.972;7.640;2022-08-11T15:15:32;162.20;;;59.20;;
11835;SDS011;5977;51.972;7.640;2022-08-11T15:18:20;163.03;;;60.43;;
11835;SDS011;5977;51.972;7.640;2022-08-11T15:20:50;163.00;;;60.57;;
11835;SDS011;5977;51.972;7.640;2022-08-11T15:23:37;162.93;;;60.40;;
11835;SDS011;5977;51.972;7.640;2022-08-11T15:26:26;163.03;;;61.10;;
11835;SDS011;5977;51.972;7.640;2022-08-11T15:29:16;162.57;;;59.87;;
11835;SDS011;5977;51.972;7.640;2022-08-11T15:32:04;162.50;;;60.03;;
11835;SDS011;5977;51.972;7.640;2022-08-11T15:34:58;162.00;;;59.90;;
11835;SDS011;5977;51.972;7.640;2022-08-11T15:37:45;161.97;;;59.00;;
11835;SDS011;5977;51.972;7.640;2022-08-11T15:40:22;162.10;;;59.77;;
11835;SDS011;5977;51.972;7.640;2022-08-11T15:43:13;162.27;;;60.57;;
11835;SDS011;5977;51.972;7.640;2022-08-11T15:46:05;162.33;;;60.20;;
11835;SDS011;5977;51.972;7.640;2022-08-11T15:48:39;161.80;;;59.23;;
11835;SDS011;5977;51.972;7.640;2022-08-11T15:51:13;161.63;;;59.60;;
11835;SDS011;5977;51.972;7.640;2022-08-11T15:53:51;161.60;;;59.53;;
11835;SDS011;5977;51.972;7.640;2022-08-11T15:56:22;161.50;;;59.10;;
11835;SDS011;5977;51.972;7.640;2022-08-11T15:58:52;162.67;;;59.90;;
11835;SDS011;5977;51.972;7.640;2022-08-11T16:02:00;161.93;;;59.03;;
11835;SDS011;5977;51.972;7.640;2022-08-11T16:04:48;161.90;;;58.80;;
11835;SDS011;5977;51.972;7.640;2022-08-11T16:07:19;162.60;;;59.03;;
11835;SDS011;5977;51.972;7.640;2022-08-11T16:09:54;161.77;;;58.57;;
11835;SDS011;5977;51.972;7.640;2022-08-11T16:12:27;161.70;;;59.00;;
11835;SDS011;5977;51.972;7.640;2022-08-11T16:14:57;162.27;;;59.10;;
11835;SDS011;5977;51.972;7.640;2022-08-11T16:17:47;162.10;;;59.17;;
11835;SDS011;5977;51.972;7.640;2022-08-11T16:20:18;161.57;;;58.37;;
11835;SDS011;5977;51.972;7.640;2022-08-11T16:22:50;161.93;;;59.00;;
11835;SDS011;5977;51.972;7.640;2022-08-11T16:25:28;161.70;;;58.83;;
11835;SDS011;5977;51.972;7.640;2022-08-11T16:28:19;162.47;;;59.47;;
11835;SDS011;5977;51.972;7.640;2022-08-11T16:30:49;161.43;;;58.60;;
11835;SDS011;5977;51.972;7.640;2022-08-11T16:33:17;161.97;;;59.00;;
11835;SDS011;5977;51.972;7.640;2022-08-11T16:36:09;161.37;;;58.33;;